Mississagi — CFG8050 — position and weather

sailwx.info

Track history (hours):
 
Tides and Currents Weather Stations Pressure Air Temp Water Temp Dewpoint Dewpoint Depression Visibility Wind Speed Wind Dir Waves Ship Positions

Mississagi

Last reported at 2017-May-06 13:49 UTC. Time now 2017-May-27 00:26 UTC.
Position N 45°26' W 073°30'.
Warning: this ship's position is 20 days out of date.

Length 189 m; draft 7.3 m.

Type: Cargo ship. MMSI: 316004940.

Date/timePositionNaut miles runAvg speedWind from/ knotsBaromVisibWave heightAir tempDewpointWater temp
2017-May-06 13:49N 45°26' W 073°30'2 6.5
2017-May-06 13:30N 45°24' W 073°32'1 1.9
2017-May-06 13:00N 45°24' W 073°34'2 2.8
2017-May-06 12:09N 45°24' W 073°37'0 2.9
2017-May-06 12:00N 45°24' W 073°38'3 5.3
2017-May-06 11:30N 45°25' W 073°41'4 7.0
2017-May-06 11:00N 45°24' W 073°46'611.6
2017-May-06 10:30N 45°21' W 073°53'2 4.6
2017-May-06 10:00N 45°19' W 073°55'1 1.7
2017-May-06 09:30N 45°18' W 073°56'1 1.8
2017-May-06 09:00N 45°17' W 073°56'2 3.8
2017-May-06 08:30N 45°16' W 073°57'7 8.6
2017-May-06 07:41N 45°14' W 074°07'310.2
2017-May-06 07:26N 45°14' W 074°11'  
2017-Apr-29 19:45N 45°50' W 084°38'311.9
2017-Apr-29 19:30N 45°49' W 084°42'611.1
2017-Apr-29 19:00N 45°49' W 084°50'612.1
2017-Apr-29 18:30N 45°50' W 084°59'612.1
2017-Apr-29 18:00N 45°50' W 085°08'611.5
2017-Apr-29 17:30N 45°44' W 085°10'612.6
2017-Apr-29 17:00N 45°39' W 085°16'612.6
2017-Apr-29 16:30N 45°34' W 085°21'612.5
2017-Apr-29 16:00N 45°29' W 085°27'612.4
2017-Apr-29 15:30N 45°24' W 085°32'612.4
2017-Apr-29 15:00N 45°19' W 085°37'612.3
2017-Apr-29 14:30N 45°14' W 085°42'9 0.2
2017-Apr-27 21:25N 45°07' W 085°50'511.0
2017-Apr-27 21:00N 45°11' W 085°46'510.9
2017-Apr-27 20:30N 45°15' W 085°41'611.1
2017-Apr-27 20:00N 45°19' W 085°37'611.0
2017-Apr-27 19:30N 45°24' W 085°32'510.6
2017-Apr-27 19:00N 45°28' W 085°28'510.7
2017-Apr-27 18:30N 45°32' W 085°23'611.4
2017-Apr-27 18:00N 45°37' W 085°18'611.3
2017-Apr-27 17:30N 45°42' W 085°13'510.8
2017-Apr-27 17:00N 45°46' W 085°09'4 8.1
2017-Apr-27 16:30N 45°50' W 085°07'611.2
2017-Apr-27 16:00N 45°50' W 084°59'611.4
2017-Apr-27 15:30N 45°49' W 084°51'611.3
2017-Apr-27 15:01N 45°49' W 084°43'611.3
2017-Apr-27 14:30N 45°51' W 084°35'  
Track history (hours):
 
Tides and Currents Weather Stations Pressure Air Temp Water Temp Dewpoint Dewpoint Depression Visibility Wind Speed Wind Dir Waves Ship Positions

Mississagi

Last reported at 2017-May-06 13:49 UTC. Time now 2017-May-27 00:26 UTC.
Position N 45°26' W 073°30'.
Warning: this ship's position is 20 days out of date.

Length 189 m; draft 7.3 m.

Type: Cargo ship. MMSI: 316004940.

Date/timePositionNaut miles runAvg speedWind from/ knotsBaromVisibWave heightAir tempDewpointWater temp
2017-May-06 13:49N 45°26' W 073°30'2 6.5
2017-May-06 13:30N 45°24' W 073°32'1 1.9
2017-May-06 13:00N 45°24' W 073°34'2 2.8
2017-May-06 12:09N 45°24' W 073°37'0 2.9
2017-May-06 12:00N 45°24' W 073°38'3 5.3
2017-May-06 11:30N 45°25' W 073°41'4 7.0
2017-May-06 11:00N 45°24' W 073°46'611.6
2017-May-06 10:30N 45°21' W 073°53'2 4.6
2017-May-06 10:00N 45°19' W 073°55'1 1.7
2017-May-06 09:30N 45°18' W 073°56'1 1.8
2017-May-06 09:00N 45°17' W 073°56'2 3.8
2017-May-06 08:30N 45°16' W 073°57'7 8.6
2017-May-06 07:41N 45°14' W 074°07'310.2
2017-May-06 07:26N 45°14' W 074°11'  
2017-Apr-29 19:45N 45°50' W 084°38'311.9
2017-Apr-29 19:30N 45°49' W 084°42'611.1
2017-Apr-29 19:00N 45°49' W 084°50'612.1
2017-Apr-29 18:30N 45°50' W 084°59'612.1
2017-Apr-29 18:00N 45°50' W 085°08'611.5
2017-Apr-29 17:30N 45°44' W 085°10'612.6
2017-Apr-29 17:00N 45°39' W 085°16'612.6
2017-Apr-29 16:30N 45°34' W 085°21'612.5
2017-Apr-29 16:00N 45°29' W 085°27'612.4
2017-Apr-29 15:30N 45°24' W 085°32'612.4
2017-Apr-29 15:00N 45°19' W 085°37'612.3
2017-Apr-29 14:30N 45°14' W 085°42'9 0.2
2017-Apr-27 21:25N 45°07' W 085°50'511.0
2017-Apr-27 21:00N 45°11' W 085°46'510.9
2017-Apr-27 20:30N 45°15' W 085°41'611.1
2017-Apr-27 20:00N 45°19' W 085°37'611.0
2017-Apr-27 19:30N 45°24' W 085°32'510.6
2017-Apr-27 19:00N 45°28' W 085°28'510.7
2017-Apr-27 18:30N 45°32' W 085°23'611.4
2017-Apr-27 18:00N 45°37' W 085°18'611.3
2017-Apr-27 17:30N 45°42' W 085°13'510.8
2017-Apr-27 17:00N 45°46' W 085°09'4 8.1
2017-Apr-27 16:30N 45°50' W 085°07'611.2
2017-Apr-27 16:00N 45°50' W 084°59'611.4
2017-Apr-27 15:30N 45°49' W 084°51'611.3
2017-Apr-27 15:01N 45°49' W 084°43'611.3
2017-Apr-27 14:30N 45°51' W 084°35'  

Dump ship's entire track history